Time;durP1;ratioP1;P1;durP2;ratioP2;P2;SDS_P1;SDS_P2;PMS_P1;PMS_P2;Temp;Humidity;BMP_temperature;BMP_pressure;BME280_temperature;BME280_humidity;BME280_pressure;Samples;Min_cycle;Max_cycle;Signal;HPM_P1;HPM_P2
2023/06/21 00:02:13;;;;;;;;;18.00;14.33;;;;;21.62;100.00;100979.53;5040083;28;45336;-63
2023/06/21 00:04:38;;;;;;;;;14.33;9.67;;;;;21.58;100.00;100987.88;5040203;28;45372;-63
2023/06/21 00:07:04;;;;;;;;;9.67;7.33;;;;;21.55;100.00;100992.47;5040028;28;45444;-65
2023/06/21 00:09:29;;;;;;;;;8.00;6.67;;;;;21.45;100.00;100985.09;5055794;28;45460;-63
2023/06/21 00:11:55;;;;;;;;;8.00;6.33;;;;;21.34;100.00;100983.97;5060317;28;45365;-64
2023/06/21 00:14:20;;;;;;;;;7.67;7.00;;;;;21.32;100.00;100993.94;5060338;28;45325;-63
2023/06/21 00:16:46;;;;;;;;;8.00;5.00;;;;;21.27;100.00;101001.38;5060342;28;45368;-65
2023/06/21 00:19:11;;;;;;;;;7.00;6.00;;;;;21.21;100.00;101004.47;5041859;28;45475;-65
2023/06/21 00:21:38;;;;;;;;;5.00;4.00;;;;;21.08;100.00;100985.63;5055196;28;45350;-66
2023/06/21 00:24:05;;;;;;;;;4.00;4.00;;;;;21.09;100.00;100991.88;5040186;28;45251;-65
2023/06/21 00:26:30;;;;;;;;;7.00;5.33;;;;;21.08;100.00;100996.34;5040156;28;45322;-66
2023/06/21 00:28:56;;;;;;;;;5.00;5.00;;;;;21.08;100.00;101008.88;5039419;28;46305;-65
2023/06/21 00:31:21;;;;;;;;;7.00;7.00;;;;;21.01;100.00;100997.69;5039769;28;45788;-66
2023/06/21 00:33:46;;;;;;;;;5.00;5.00;;;;;20.98;100.00;100985.34;5038629;28;45547;-65
2023/06/21 00:36:12;;;;;;;;;4.33;4.33;;;;;20.91;100.00;100967.94;5039718;28;45432;-66
2023/06/21 00:38:37;;;;;;;;;4.00;4.00;;;;;20.75;100.00;100935.94;5039612;28;45295;-66
2023/06/21 00:41:07;;;;;;;;;5.00;3.33;;;;;20.87;100.00;100975.31;5039564;28;45238;-65
2023/06/21 00:43:33;;;;;;;;;5.33;5.33;;;;;20.81;100.00;100962.34;5039853;28;45392;-66
2023/06/21 00:45:58;;;;;;;;;6.00;4.33;;;;;20.81;100.00;100974.84;5039783;28;45382;-65
2023/06/21 00:48:28;;;;;;;;;5.33;4.00;;;;;20.69;100.00;100972.00;5039355;28;47128;-65
2023/06/21 00:50:54;;;;;;;;;4.67;4.67;;;;;20.72;100.00;100978.09;5053451;28;45372;-66
2023/06/21 00:53:21;;;;;;;;;8.00;5.00;;;;;20.64;100.00;100976.72;5047668;28;45554;-66
2023/06/21 00:55:46;;;;;;;;;5.00;5.00;;;;;20.59;100.00;100965.41;5039608;28;45396;-66
2023/06/21 00:58:12;;;;;;;;;6.33;5.00;;;;;20.54;100.00;100978.22;5039210;28;45802;-66
2023/06/21 01:00:37;;;;;;;;;5.00;5.00;;;;;20.56;100.00;100987.00;5037077;28;45552;-65
2023/06/21 01:03:03;;;;;;;;;9.00;5.00;;;;;20.32;100.00;100955.47;5041894;28;45482;-65
2023/06/21 01:05:30;;;;;;;;;6.00;5.00;;;;;20.50;100.00;100987.41;5039197;28;45353;-66
2023/06/21 01:08:01;;;;;;;;;8.00;7.33;;;;;20.47;100.00;100985.75;5038454;28;46702;-66
2023/06/21 01:10:41;;;;;;;;;6.67;6.67;;;;;20.37;100.00;100983.75;5039087;28;45428;-66
2023/06/21 01:13:15;;;;;;;;;9.33;7.00;;;;;20.21;100.00;100990.00;5039111;28;45509;-66
2023/06/21 01:15:47;;;;;;;;;8.67;8.00;;;;;20.14;100.00;100996.66;5039210;28;45334;-68
2023/06/21 01:18:15;;;;;;;;;6.00;6.00;;;;;20.17;100.00;101010.72;5038842;28;46259;-67
2023/06/21 01:20:41;;;;;;;;;5.00;5.00;;;;;20.20;100.00;101012.38;5038687;28;45390;-66
2023/06/21 01:23:09;;;;;;;;;6.67;5.00;;;;;20.21;100.00;100999.84;5038321;28;45452;-66
2023/06/21 01:26:05;;;;;;;;;7.00;7.00;;;;;20.21;100.00;101002.53;5039042;28;45446;-66
2023/06/21 01:28:39;;;;;;;;;10.00;7.00;;;;;19.98;100.00;100967.31;5038575;28;47529;-66
2023/06/21 01:31:06;;;;;;;;;7.67;6.67;;;;;20.04;100.00;100985.69;5038540;28;45324;-66
2023/06/21 01:33:33;;;;;;;;;5.00;5.00;;;;;20.02;100.00;100986.72;5038865;28;45437;-66
2023/06/21 01:36:03;;;;;;;;;8.33;7.33;;;;;19.95;100.00;100995.09;5038856;28;45231;-66
2023/06/21 01:38:29;;;;;;;;;6.00;6.00;;;;;19.95;100.00;101004.91;5038326;28;45583;-66
2023/06/21 01:40:54;;;;;;;;;6.33;6.33;;;;;19.96;100.00;101007.50;5038382;28;45392;-66
2023/06/21 01:43:20;;;;;;;;;7.00;7.00;;;;;19.75;100.00;100966.81;5038384;28;45226;-67
2023/06/21 01:45:47;;;;;;;;;9.00;7.67;;;;;19.88;100.00;101004.41;5038754;28;45521;-67
2023/06/21 01:48:14;;;;;;;;;6.33;6.33;;;;;19.83;100.00;101001.13;5038274;28;46519;-67
2023/06/21 01:50:40;;;;;;;;;8.33;7.33;;;;;19.74;100.00;100997.16;5038105;28;45644;-67
2023/06/21 01:53:06;;;;;;;;;9.67;7.67;;;;;19.80;100.00;101002.16;5038418;28;45425;-67
2023/06/21 01:55:32;;;;;;;;;7.67;7.67;;;;;19.82;100.00;101012.75;5038662;28;45250;-66
2023/06/21 01:57:58;;;;;;;;;7.33;6.33;;;;;19.78;100.00;101006.75;5038084;28;46359;-65
2023/06/21 02:00:26;;;;;;;;;6.67;5.67;;;;;19.88;100.00;101038.28;5038020;28;45793;-65
2023/06/21 02:03:00;;;;;;;;;8.33;7.00;;;;;19.89;100.00;101040.88;5037738;28;45459;-65
2023/06/21 02:05:27;;;;;;;;;8.00;5.67;;;;;19.85;100.00;101039.31;5038186;28;45383;-66
2023/06/21 02:07:54;;;;;;;;;7.67;5.00;;;;;19.86;100.00;101045.53;5037878;28;45495;-65
2023/06/21 02:10:19;;;;;;;;;7.00;7.00;;;;;19.80;100.00;101036.06;5038438;28;45379;-65
2023/06/21 02:12:52;;;;;;;;;12.33;7.00;;;;;19.79;100.00;101045.91;5038188;28;45270;-65
2023/06/21 02:15:18;;;;;;;;;8.00;6.00;;;;;19.75;100.00;101046.09;5038349;28;45341;-66
2023/06/21 02:17:50;;;;;;;;;7.00;7.00;;;;;19.77;100.00;101060.25;5038012;28;45457;-66
2023/06/21 02:20:17;;;;;;;;;8.00;6.67;;;;;19.76;100.00;101064.72;5037516;28;45399;-66
2023/06/21 02:22:43;;;;;;;;;8.00;6.00;;;;;19.73;100.00;101069.38;5038140;28;45559;-66
2023/06/21 02:25:10;;;;;;;;;6.00;6.00;;;;;19.70;100.00;101062.38;5038251;28;45176;-66
2023/06/21 02:27:36;;;;;;;;;8.00;5.00;;;;;19.74;100.00;101073.78;5037311;28;46210;-67
2023/06/21 02:30:02;;;;;;;;;8.67;5.67;;;;;19.69;100.00;101076.69;5037983;28;45385;-67
2023/06/21 02:32:27;;;;;;;;;7.00;6.00;;;;;19.67;100.00;101074.09;5037982;28;45202;-67
2023/06/21 02:34:53;;;;;;;;;8.33;6.33;;;;;19.59;100.00;101060.34;5036901;28;45329;-67
2023/06/21 02:37:18;;;;;;;;;7.00;6.33;;;;;19.66;100.00;101079.53;5037140;28;46654;-67
2023/06/21 02:39:43;;;;;;;;;3.67;3.33;;;;;19.64;100.00;101084.97;5037660;28;45282;-67
2023/06/21 02:42:09;;;;;;;;;6.67;6.67;;;;;19.60;100.00;101082.56;5037982;28;45429;-67
2023/06/21 02:44:34;;;;;;;;;7.67;7.67;;;;;19.64;100.00;101092.13;5038030;28;45432;-68
2023/06/21 02:46:59;;;;;;;;;9.00;7.67;;;;;19.64;100.00;101092.13;5037680;28;45623;-68
2023/06/21 02:49:25;;;;;;;;;12.00;10.33;;;;;19.57;100.00;101096.94;5037612;28;45367;-67
2023/06/21 02:51:51;;;;;;;;;7.00;7.00;;;;;19.46;100.00;101084.19;5037629;28;45302;-68
2023/06/21 02:54:17;;;;;;;;;7.00;7.00;;;;;19.49;100.00;101089.34;5037401;28;45574;-67
2023/06/21 02:56:43;;;;;;;;;8.00;7.00;;;;;19.51;100.00;101096.44;5036706;28;45380;-67
2023/06/21 02:59:09;;;;;;;;;9.33;9.33;;;;;19.51;100.00;101101.78;5037517;28;45440;-67
2023/06/21 03:01:34;;;;;;;;;8.67;7.33;;;;;19.48;100.00;101103.66;5037537;28;45200;-68
2023/06/21 03:03:59;;;;;;;;;8.00;8.00;;;;;19.51;100.00;101110.63;5037670;28;45279;-68
2023/06/21 03:06:25;;;;;;;;;9.67;7.00;;;;;19.49;100.00;101101.84;5037457;28;45693;-67
2023/06/21 03:08:51;;;;;;;;;10.33;7.67;;;;;19.44;100.00;101112.75;5036929;28;45524;-67
2023/06/21 03:11:17;;;;;;;;;9.67;8.00;;;;;19.44;100.00;101103.91;5037622;28;45389;-67
2023/06/21 03:13:43;;;;;;;;;10.00;7.67;;;;;19.47;100.00;101106.41;5037651;28;45385;-66
2023/06/21 03:16:08;;;;;;;;;10.33;10.00;;;;;19.46;100.00;101115.34;5037202;28;45364;-67
2023/06/21 03:18:33;;;;;;;;;9.33;7.00;;;;;19.24;100.00;101084.50;5037402;28;45393;-68
2023/06/21 03:21:02;;;;;;;;;6.67;6.67;;;;;19.38;100.00;101107.75;5037308;28;45635;-67
2023/06/21 03:23:28;;;;;;;;;9.00;6.67;;;;;19.40;100.00;101116.56;5037012;28;45567;-68
2023/06/21 03:25:53;;;;;;;;;7.67;7.00;;;;;19.38;100.00;101118.44;5036974;28;47279;-68
2023/06/21 03:28:19;;;;;;;;;7.00;7.00;;;;;19.37;100.00;101129.22;5036978;28;45895;-67
2023/06/21 03:30:44;;;;;;;;;6.00;6.00;;;;;19.36;100.00;101117.69;5037317;28;45210;-68
2023/06/21 03:33:10;;;;;;;;;6.33;6.33;;;;;19.25;100.00;101106.69;5037378;28;45396;-68
2023/06/21 03:35:36;;;;;;;;;7.00;7.00;;;;;19.25;100.00;101109.38;5036922;28;46316;-67
2023/06/21 03:38:01;;;;;;;;;11.33;8.00;;;;;19.17;100.00;101091.09;5037127;28;45285;-67
2023/06/21 03:40:27;;;;;;;;;8.67;6.00;;;;;19.22;100.00;101098.88;5036647;28;45511;-67
2023/06/21 03:42:53;;;;;;;;;14.33;11.33;;;;;19.14;100.00;101096.63;5037359;28;45450;-68
2023/06/21 03:45:18;;;;;;;;;14.00;10.33;;;;;19.24;100.00;101121.00;5036775;28;46478;-68
2023/06/21 03:47:44;;;;;;;;;8.67;8.00;;;;;19.23;100.00;101127.28;5036850;28;45254;-68
2023/06/21 03:50:11;;;;;;;;;10.00;5.33;;;;;19.21;100.00;101130.00;5036941;28;45365;-68
2023/06/21 03:52:37;;;;;;;;;9.00;7.00;;;;;19.19;100.00;101136.41;5036795;28;45524;-68
2023/06/21 03:55:02;;;;;;;;;8.00;6.33;;;;;19.19;100.00;101144.41;5036682;28;46586;-68
2023/06/21 03:57:28;;;;;;;;;8.00;7.00;;;;;19.18;100.00;101150.69;5036738;28;45425;-68
2023/06/21 03:59:53;;;;;;;;;8.00;8.00;;;;;18.96;100.00;101114.44;5036723;28;45304;-68
2023/06/21 04:02:20;;;;;;;;;13.00;11.67;;;;;19.18;100.00;101161.38;5036958;28;45464;-68
2023/06/21 04:04:47;;;;;;;;;10.00;8.33;;;;;19.17;100.00;101160.50;5036502;28;46147;-68
2023/06/21 04:07:12;;;;;;;;;6.67;6.67;;;;;19.18;100.00;101164.88;5037914;28;45379;-68
2023/06/21 04:09:38;;;;;;;;;17.67;15.33;;;;;19.12;100.00;101171.41;5051326;28;45290;-68
2023/06/21 04:12:03;;;;;;;;;9.00;6.33;;;;;18.97;100.00;101137.53;5060513;28;45251;-67
2023/06/21 04:14:29;;;;;;;;;10.67;8.33;;;;;18.92;100.00;101137.75;5060224;28;46081;-67
2023/06/21 04:16:54;;;;;;;;;8.67;8.67;;;;;19.14;100.00;101182.03;5044929;28;45525;-67
2023/06/21 04:19:20;;;;;;;;;6.00;6.00;;;;;19.15;100.00;101183.75;5040158;28;45328;-67
2023/06/21 04:21:45;;;;;;;;;5.00;5.00;;;;;19.17;100.00;101187.22;5040223;28;45254;-67
2023/06/21 04:24:10;;;;;;;;;5.33;5.00;;;;;19.18;100.00;101180.91;5039437;28;45329;-67
2023/06/21 04:26:36;;;;;;;;;6.67;6.67;;;;;19.14;100.00;101179.38;5039973;28;45444;-67
2023/06/21 04:29:01;;;;;;;;;4.33;4.33;;;;;19.19;100.00;101192.47;5039737;28;45278;-67
2023/06/21 04:31:28;;;;;;;;;6.67;5.00;;;;;19.20;100.00;101202.19;5039839;28;45405;-67
2023/06/21 04:33:54;;;;;;;;;5.67;5.67;;;;;19.21;100.00;101204.75;5039670;28;47006;-67
2023/06/21 04:36:19;;;;;;;;;7.33;5.00;;;;;19.21;100.00;101209.25;5039700;28;45206;-67
2023/06/21 04:38:49;;;;;;;;;8.67;6.33;;;;;19.16;100.00;101197.97;5039493;28;45460;-67
2023/06/21 04:41:18;;;;;;;;;6.33;6.33;;;;;19.16;100.00;101204.16;5039704;28;45361;-67
2023/06/21 04:43:43;;;;;;;;;7.67;6.00;;;;;19.20;100.00;101212.84;5039582;28;45333;-67
2023/06/21 04:46:08;;;;;;;;;5.33;5.33;;;;;19.19;100.00;101212.00;5039261;28;45412;-66
2023/06/21 04:48:34;;;;;;;;;6.00;6.00;;;;;19.21;100.00;101211.94;5043808;28;45874;-68
2023/06/21 04:50:59;;;;;;;;;7.67;5.00;;;;;19.23;100.00;101215.41;5059806;28;45203;-67
2023/06/21 04:53:28;;;;;;;;;6.00;5.67;;;;;19.14;100.00;101211.41;5059429;28;45743;-66
2023/06/21 04:55:54;;;;;;;;;4.33;4.00;;;;;19.18;100.00;101212.09;5059472;28;45358;-67
2023/06/21 04:58:19;;;;;;;;;8.33;5.33;;;;;19.27;100.00;101227.63;5053514;28;45481;-67
2023/06/21 05:00:45;;;;;;;;;7.00;5.00;;;;;19.08;100.00;101204.56;5039442;28;45432;-67
2023/06/21 05:03:10;;;;;;;;;6.00;5.00;;;;;19.10;100.00;101207.16;5039302;28;45470;-65
2023/06/21 05:05:35;;;;;;;;;10.33;7.00;;;;;19.30;100.00;101236.34;5039272;28;45270;-66
2023/06/21 05:08:01;;;;;;;;;7.67;7.33;;;;;19.33;100.00;101247.81;5039463;28;45369;-67
2023/06/21 05:10:27;;;;;;;;;5.50;4.50;;;;;19.31;100.00;101235.41;5039242;28;45351;-67
2023/06/21 05:12:52;;;;;;;;;5.67;5.67;;;;;19.41;100.00;101251.81;5038898;28;47040;-65
2023/06/21 05:15:18;;;;;;;;;11.33;8.33;;;;;19.45;100.00;101255.19;5038869;28;45564;-67
2023/06/21 05:17:43;;;;;;;;;8.33;7.00;;;;;19.49;100.00;101243.41;5039320;28;45254;-68
2023/06/21 05:20:09;;;;;;;;;7.67;7.33;;;;;19.50;100.00;101221.09;5038246;28;45484;-67
2023/06/21 05:22:34;;;;;;;;;8.33;5.67;;;;;19.74;100.00;101247.47;5039149;28;45424;-67
2023/06/21 05:25:04;;;;;;;;;6.00;5.00;;;;;19.79;100.00;101264.13;5038621;28;45286;-67
2023/06/21 05:27:32;;;;;;;;;6.00;6.00;;;;;19.76;100.00;101264.25;5038749;28;45326;-67
2023/06/21 05:29:57;;;;;;;;;3.33;3.00;;;;;19.54;100.00;101237.81;5038357;28;46153;-67
2023/06/21 05:32:25;;;;;;;;;6.33;4.00;;;;;19.64;100.00;101260.44;5039307;28;46643;-67
2023/06/21 05:34:51;;;;;;;;;6.00;6.00;;;;;19.67;100.00;101269.13;5046453;28;45223;-67
2023/06/21 05:37:16;;;;;;;;;7.33;5.67;;;;;19.76;100.00;101270.47;5050976;28;45158;-67
2023/06/21 05:39:44;;;;;;;;;8.00;8.00;;;;;19.86;100.00;101275.38;5041656;28;45421;-67
2023/06/21 05:42:09;;;;;;;;;9.00;8.00;;;;;19.99;100.00;101279.09;5038184;28;47278;-67
2023/06/21 05:44:34;;;;;;;;;6.67;5.33;;;;;20.04;100.00;101276.16;5049807;28;45483;-67
2023/06/21 05:47:00;;;;;;;;;6.33;6.33;;;;;20.16;100.00;101295.09;5038446;28;45504;-67
2023/06/21 05:49:25;;;;;;;;;14.67;13.33;;;;;20.22;100.00;101296.56;5051174;28;45455;-67
2023/06/21 05:51:50;;;;;;;;;9.00;6.33;;;;;20.26;100.00;101291.91;5052064;28;45369;-67
2023/06/21 05:54:16;;;;;;;;;7.00;5.33;;;;;20.30;100.00;101296.13;5037914;28;45599;-67
2023/06/21 05:56:41;;;;;;;;;6.33;5.00;;;;;20.26;100.00;101297.25;5048342;28;45419;-67
2023/06/21 05:59:06;;;;;;;;;7.00;5.00;;;;;20.28;100.00;101303.41;5053183;28;45293;-68
2023/06/21 06:01:32;;;;;;;;;9.33;5.00;;;;;20.27;100.00;101304.34;5058285;28;46467;-67
2023/06/21 06:03:57;;;;;;;;;7.00;5.00;;;;;20.30;99.93;101304.16;5058508;28;45346;-68
2023/06/21 06:06:22;;;;;;;;;8.00;5.67;;;;;20.29;98.97;101295.28;5058486;28;45446;-67
2023/06/21 06:08:47;;;;;;;;;6.00;6.00;;;;;20.32;99.20;101307.63;5058417;28;45441;-68
2023/06/21 06:11:13;;;;;;;;;9.00;6.00;;;;;20.31;99.89;101314.78;5058430;28;46329;-67
2023/06/21 06:13:38;;;;;;;;;6.00;4.00;;;;;20.26;98.64;101306.16;5058159;28;45249;-68
2023/06/21 06:16:04;;;;;;;;;6.00;6.00;;;;;20.31;98.56;101317.44;5058488;28;45356;-67
2023/06/21 06:18:29;;;;;;;;;6.00;5.33;;;;;20.22;98.14;101307.28;5058512;28;45321;-67
2023/06/21 06:20:55;;;;;;;;;8.00;6.33;;;;;20.25;98.55;101320.47;5057819;28;46569;-67
2023/06/21 06:23:20;;;;;;;;;5.67;4.00;;;;;20.25;98.14;101315.13;5058435;28;45456;-67
2023/06/21 06:25:46;;;;;;;;;11.67;10.00;;;;;20.19;99.45;101302.09;5058029;28;45324;-67
2023/06/21 06:28:11;;;;;;;;;7.00;5.33;;;;;20.43;98.18;101339.97;5058115;28;45497;-68
2023/06/21 06:30:36;;;;;;;;;8.00;7.00;;;;;20.58;98.61;101345.44;5056918;28;45349;-67
2023/06/21 06:33:02;;;;;;;;;9.00;6.00;;;;;20.59;96.86;101326.63;5057922;28;45352;-67
2023/06/21 06:35:27;;;;;;;;;8.00;6.67;;;;;20.72;97.61;101340.22;5058375;28;45424;-67
2023/06/21 06:37:53;;;;;;;;;6.33;6.33;;;;;20.75;96.63;101344.53;5058302;28;45369;-68
2023/06/21 06:40:18;;;;;;;;;5.00;5.00;;;;;20.79;95.48;101351.47;5057760;28;45472;-67
2023/06/21 06:42:44;;;;;;;;;8.33;6.67;;;;;20.75;95.20;101353.44;5057742;28;45308;-67
2023/06/21 06:45:10;;;;;;;;;6.67;6.67;;;;;20.78;95.75;101361.31;5058051;28;45464;-67
2023/06/21 06:47:35;;;;;;;;;7.00;7.00;;;;;20.83;96.47;101355.69;5058008;28;45348;-67
2023/06/21 06:50:04;;;;;;;;;6.33;5.33;;;;;20.87;95.09;101360.78;5057561;28;45419;-67
2023/06/21 06:52:30;;;;;;;;;6.33;4.00;;;;;20.96;95.17;101366.56;5057684;28;45357;-67
2023/06/21 06:54:56;;;;;;;;;7.00;5.00;;;;;20.99;94.94;101369.94;5057640;28;45349;-68
2023/06/21 06:57:22;;;;;;;;;6.33;4.33;;;;;21.02;92.73;101364.41;5057765;28;45369;-67
2023/06/21 06:59:49;;;;;;;;;6.33;5.33;;;;;21.16;92.71;101370.78;5058119;27;45432;-67
2023/06/21 07:02:15;;;;;;;;;8.00;8.00;;;;;21.20;92.48;101373.22;5057441;28;45356;-67
2023/06/21 07:04:40;;;;;;;;;6.33;5.33;;;;;21.24;92.53;101371.19;5057929;28;45384;-67
2023/06/21 07:07:05;;;;;;;;;6.00;6.00;;;;;21.29;91.63;101376.28;5057794;28;45466;-67
2023/06/21 07:09:33;;;;;;;;;9.00;8.00;;;;;21.16;90.68;101341.31;5057257;28;46460;-67
2023/06/21 07:12:01;;;;;;;;;4.33;4.33;;;;;21.68;90.21;101370.44;5057478;28;45381;-67
2023/06/21 07:14:26;;;;;;;;;4.33;4.33;;;;;22.50;87.59;101386.94;5057314;28;45451;-67
2023/06/21 07:16:52;;;;;;;;;3.33;3.33;;;;;22.90;83.26;101375.47;5057582;28;45168;-67
2023/06/21 07:19:17;;;;;;;;;6.67;5.00;;;;;23.14;81.37;101378.44;5057204;28;46311;-67
2023/06/21 07:21:44;;;;;;;;;6.00;6.00;;;;;23.23;80.61;101376.97;5057256;28;45522;-67
2023/06/21 07:24:09;;;;;;;;;5.00;5.00;;;;;22.93;80.91;101351.09;5057386;28;45325;-67
2023/06/21 07:26:34;;;;;;;;;8.00;7.00;;;;;23.10;81.32;101367.00;5057549;28;45344;-67
2023/06/21 07:29:00;;;;;;;;;7.00;4.00;;;;;23.08;80.62;101368.06;5056867;28;47112;-67
2023/06/21 07:31:25;;;;;;;;;7.00;6.00;;;;;22.97;81.58;101374.13;5057190;28;45421;-66
2023/06/21 07:33:55;;;;;;;;;6.00;6.00;;;;;22.80;83.73;101368.97;5057362;28;45340;-67
2023/06/21 07:36:21;;;;;;;;;4.00;3.33;;;;;23.14;81.15;101381.13;5057548;28;45412;-67
2023/06/21 07:38:48;;;;;;;;;6.00;5.00;;;;;23.28;79.96;101378.38;5056875;28;46652;-67
2023/06/21 07:41:13;;;;;;;;;6.00;5.00;;;;;23.10;80.69;101376.88;5056907;28;45394;-67
2023/06/21 07:43:39;;;;;;;;;5.67;5.33;;;;;22.93;80.25;101383.31;5060840;28;45523;-67
2023/06/21 07:46:04;;;;;;;;;6.33;5.00;;;;;22.80;81.71;101398.50;5060855;28;45202;-67
2023/06/21 07:48:29;;;;;;;;;5.00;5.00;;;;;22.67;81.77;101393.06;5060448;28;46611;-66
2023/06/21 07:50:55;;;;;;;;;8.00;5.00;;;;;22.55;82.64;101392.03;5060268;28;45372;-66
2023/06/21 07:53:20;;;;;;;;;6.00;5.00;;;;;22.43;83.57;101386.47;5060725;28;45411;-66
2023/06/21 07:55:45;;;;;;;;;7.67;7.00;;;;;22.37;83.43;101384.16;5060663;28;45336;-66
2023/06/21 07:58:11;;;;;;;;;6.00;6.00;;;;;22.18;83.44;101359.41;5060329;28;46071;-67
2023/06/21 08:00:36;;;;;;;;;6.00;4.67;;;;;22.37;83.54;101402.94;5060420;28;45336;-68
2023/06/21 08:03:02;;;;;;;;;5.00;4.00;;;;;22.35;82.98;101398.63;5060412;28;45300;-67
2023/06/21 08:05:27;;;;;;;;;3.00;2.00;;;;;22.26;81.63;101389.28;5059354;28;45571;-67
2023/06/21 08:07:53;;;;;;;;;3.00;3.00;;;;;22.24;82.23;101391.22;5060211;28;45435;-67
2023/06/21 08:10:19;;;;;;;;;8.00;5.00;;;;;22.25;82.54;101404.53;5060117;28;45333;-67
2023/06/21 08:12:44;;;;;;;;;3.67;3.67;;;;;22.46;82.72;101411.41;5060433;28;45309;-66
2023/06/21 08:15:10;;;;;;;;;3.67;3.00;;;;;22.59;81.04;101401.59;5060483;28;45214;-67
2023/06/21 08:17:35;;;;;;;;;6.00;4.67;;;;;22.66;81.01;101418.19;5060027;28;47514;-67
2023/06/21 08:20:01;;;;;;;;;4.33;2.67;;;;;22.39;79.66;101390.31;5058945;28;45447;-67
2023/06/21 08:22:26;;;;;;;;;8.00;7.33;;;;;22.55;81.16;101417.06;5060225;28;45424;-66
2023/06/21 08:24:54;;;;;;;;;4.00;4.00;;;;;22.34;80.79;101391.56;5060309;28;45399;-67
2023/06/21 08:27:20;;;;;;;;;3.33;3.33;;;;;22.49;81.25;101413.88;5060163;28;45547;-67
2023/06/21 08:29:47;;;;;;;;;8.00;5.00;;;;;22.47;81.04;101408.63;5059583;28;45462;-66
2023/06/21 08:32:12;;;;;;;;;4.00;4.00;;;;;22.56;80.63;101420.59;5060009;28;45313;-67
2023/06/21 08:34:37;;;;;;;;;4.00;4.00;;;;;22.55;81.04;101422.44;5060032;28;45301;-67
2023/06/21 08:37:03;;;;;;;;;4.67;4.67;;;;;22.36;80.53;101381.59;5060010;28;46701;-67
2023/06/21 08:39:28;;;;;;;;;5.67;5.00;;;;;22.70;79.50;101412.53;5059547;28;45754;-67
2023/06/21 08:41:54;;;;;;;;;4.00;3.00;;;;;23.03;79.96;101414.00;5059715;28;45284;-66
2023/06/21 08:44:20;;;;;;;;;5.33;4.33;;;;;23.37;77.88;101419.06;5060299;28;45288;-67
2023/06/21 08:46:48;;;;;;;;;3.67;3.67;;;;;23.33;76.79;101415.69;5059639;28;45522;-67
2023/06/21 08:49:17;;;;;;;;;4.00;3.00;;;;;23.30;76.18;101418.59;5059596;28;45375;-67
2023/06/21 08:51:45;;;;;;;;;5.00;3.67;;;;;23.21;77.42;101409.31;5059474;28;45348;-67
2023/06/21 08:54:12;;;;;;;;;2.00;2.00;;;;;23.23;77.75;101414.56;5058812;28;45337;-67
2023/06/21 08:56:50;;;;;;;;;14.00;14.00;;;;;23.15;77.14;101409.72;5059257;28;46714;-66
2023/06/21 08:59:36;;;;;;;;;5.33;5.33;;;;;23.14;76.81;101417.88;5059526;28;45313;-67
2023/06/21 09:02:12;;;;;;;;;2.00;2.00;;;;;23.11;77.92;101414.41;5059569;28;45329;-67
2023/06/21 09:04:45;;;;;;;;;3.00;3.00;;;;;23.09;76.86;101427.06;5059568;28;45551;-67
2023/06/21 09:07:12;;;;;;;;;5.00;2.00;;;;;23.17;77.30;101429.25;5059194;28;45447;-67
2023/06/21 09:09:39;;;;;;;;;3.00;3.00;;;;;23.44;74.96;101421.22;5059238;28;45242;-67
2023/06/21 09:12:06;;;;;;;;;6.33;6.33;;;;;23.54;73.47;101431.34;5059424;28;45316;-67
2023/06/21 09:14:33;;;;;;;;;3.33;2.33;;;;;23.51;73.47;101424.34;5059529;28;45439;-67
2023/06/21 09:17:00;;;;;;;;;2.00;2.00;;;;;23.56;74.58;101437.50;5059065;28;46223;-67
2023/06/21 09:19:26;;;;;;;;;3.00;3.00;;;;;23.80;73.29;101440.34;5059115;28;45349;-67
2023/06/21 09:21:53;;;;;;;;;2.67;2.00;;;;;23.89;73.70;101434.41;5059629;28;45394;-68
2023/06/21 09:24:18;;;;;;;;;2.00;2.00;;;;;23.98;72.43;101444.50;5059474;28;45522;-67
2023/06/21 09:26:43;;;;;;;;;0.33;0.33;;;;;23.99;72.19;101443.56;5058764;28;47329;-67
2023/06/21 09:29:09;;;;;;;;;2.00;1.00;;;;;24.71;68.96;101428.72;5058876;28;45400;-67
2023/06/21 09:31:34;;;;;;;;;5.00;5.00;;;;;26.71;64.34;101437.06;5059126;28;45401;-67
2023/06/21 09:33:59;;;;;;;;;2.00;2.00;;;;;29.13;56.37;101431.91;5059385;28;45370;-67
2023/06/21 09:36:25;;;;;;;;;2.00;2.00;;;;;31.64;53.74;101441.50;5058847;28;47307;-67
2023/06/21 09:38:51;;;;;;;;;3.00;3.00;;;;;33.87;50.29;101464.41;5058786;28;45396;-67
2023/06/21 09:41:17;;;;;;;;;3.00;3.00;;;;;35.78;43.12;101461.59;5059067;28;45333;-67
2023/06/21 09:43:44;;;;;;;;;1.67;1.67;;;;;37.52;38.27;101461.31;5059149;28;45202;-67
2023/06/21 09:46:12;;;;;;;;;3.00;0.67;;;;;39.00;35.00;101466.00;5058749;28;46155;-67
2023/06/21 09:48:39;;;;;;;;;2.00;2.00;;;;;40.30;31.63;101476.75;5058636;28;45320;-68
2023/06/21 09:51:12;;;;;;;;;2.00;0.67;;;;;41.48;31.53;101476.75;5058439;28;45342;-67
2023/06/21 09:53:42;;;;;;;;;2.00;2.00;;;;;42.34;30.04;101471.56;5058993;28;45301;-67
2023/06/21 09:56:07;;;;;;;;;4.00;3.00;;;;;43.16;29.56;101487.03;5058285;28;45302;-67
2023/06/21 09:58:34;;;;;;;;;1.00;1.00;;;;;44.04;28.86;101481.81;5058496;28;45226;-67
2023/06/21 10:01:05;;;;;;;;;0.33;0.33;;;;;44.90;26.65;101467.34;5058652;28;45167;-67
2023/06/21 10:03:33;;;;;;;;;1.00;1.00;;;;;45.74;28.40;101468.56;5058655;28;45847;-67
2023/06/21 10:06:02;;;;;;;;;5.67;3.33;;;;;46.32;25.12;101466.44;5058181;28;45408;-67
2023/06/21 10:08:31;;;;;;;;;1.00;1.00;;;;;46.90;26.14;101462.16;5058566;28;45365;-67
2023/06/21 10:10:56;;;;;;;;;0.00;0.00;;;;;47.23;24.38;101448.28;5058286;28;45475;-67
2023/06/21 10:13:33;;;;;;;;;2.00;2.00;;;;;47.73;23.75;101462.97;5058619;28;45294;-68
2023/06/21 10:16:02;;;;;;;;;1.50;1.50;;;;;48.24;24.38;101465.28;5058128;28;45734;-67
2023/06/21 10:18:28;;;;;;;;;0.75;0.75;;;;;48.67;22.39;101451.22;5058271;28;45340;-68
2023/06/21 10:21:00;;;;;;;;;0.75;0.75;;;;;49.07;22.70;101450.47;5058168;28;45484;-68
2023/06/21 10:23:29;;;;;;;;;1.00;1.00;;;;;49.21;23.27;101442.41;5058499;28;45440;-68
2023/06/21 10:26:03;;;;;;;;;0.50;0.50;;;;;49.01;22.00;101459.97;5057831;28;47660;-67
2023/06/21 10:28:35;;;;;;;;;0.00;0.00;;;;;48.84;20.82;101454.63;5057879;28;45257;-67
2023/06/21 10:31:03;;;;;;;;;0.00;0.00;;;;;48.02;22.15;101452.28;5058299;28;45458;-68
2023/06/21 10:33:30;;;;;;;;;1.75;0.25;;;;;47.70;22.38;101460.69;5058222;28;45328;-68
2023/06/21 10:35:59;;;;;;;;;1.75;1.75;;;;;47.14;22.31;101461.03;5057761;28;47554;-68
2023/06/21 10:38:34;;;;;;;;;1.00;1.00;;;;;46.85;22.83;101464.88;5057893;28;45221;-68
2023/06/21 10:41:02;;;;;;;;;1.75;0.75;;;;;46.82;22.65;101454.25;5057741;28;45236;-67
2023/06/21 10:43:28;;;;;;;;;0.00;0.00;;;;;46.99;21.98;101454.19;5058108;28;45377;-68
2023/06/21 10:45:57;;;;;;;;;0.25;0.25;;;;;46.99;21.61;101451.41;5057792;28;45416;-68
2023/06/21 10:48:24;;;;;;;;;1.75;0.50;;;;;46.86;21.09;101457.38;5057741;28;45222;-68
2023/06/21 10:50:51;;;;;;;;;0.25;0.25;;;;;46.76;20.83;101454.47;5057728;28;45377;-68
2023/06/21 10:53:18;;;;;;;;;1.50;1.50;;;;;46.85;22.44;101461.25;5058042;28;45432;-68
2023/06/21 10:55:44;;;;;;;;;0.00;0.00;;;;;46.67;21.10;101452.13;5057461;28;45638;-68
2023/06/21 10:58:10;;;;;;;;;2.75;1.00;;;;;46.57;21.19;101452.00;5057654;28;45424;-68
2023/06/21 11:00:35;;;;;;;;;0.00;0.00;;;;;46.39;20.73;101451.22;5057745;28;45266;-68
2023/06/21 11:03:01;;;;;;;;;2.25;2.25;;;;;45.84;22.40;101446.53;5057525;28;45484;-68
2023/06/21 11:05:27;;;;;;;;;1.00;0.50;;;;;44.72;21.44;101452.53;5057480;28;46930;-68
2023/06/21 11:07:55;;;;;;;;;3.75;2.00;;;;;43.53;22.86;101460.03;5057520;28;45233;-68
2023/06/21 11:10:29;;;;;;;;;1.25;0.75;;;;;42.27;23.06;101458.66;5057339;28;45363;-68
2023/06/21 11:12:55;;;;;;;;;0.50;0.00;;;;;41.01;23.88;101441.09;5057920;28;45424;-67
2023/06/21 11:15:22;;;;;;;;;0.00;0.00;;;;;39.86;24.50;101451.53;5057248;28;46421;-68
2023/06/21 11:18:07;;;;;;;;;0.00;0.00;;;;;38.61;26.02;101457.31;5056792;28;45428;-67